createdAt,value
2017-05-02T00:00:49.874Z,91.79
2017-05-02T00:01:51.087Z,91.89
2017-05-02T00:02:52.312Z,91.99
2017-05-02T00:03:53.553Z,91.89
2017-05-02T00:04:54.782Z,91.7
2017-05-02T00:05:56.140Z,92.36
2017-05-02T00:06:57.418Z,92.18
2017-05-02T00:07:58.627Z,92.27
2017-05-02T00:08:59.866Z,92.46
2017-05-02T00:10:01.115Z,92.18
2017-05-02T00:11:02.386Z,92.27
2017-05-02T00:12:03.709Z,92.08
2017-05-02T00:13:04.968Z,92.08
2017-05-02T00:14:06.208Z,92.08
2017-05-02T00:15:07.459Z,92.18
2017-05-02T00:16:08.731Z,93.03
2017-05-02T00:17:10.085Z,92.74
2017-05-02T00:18:11.318Z,92.74
2017-05-02T00:19:12.560Z,92.74
2017-05-02T00:20:13.826Z,92.84
2017-05-02T00:21:15.067Z,92.46
2017-05-02T00:22:16.362Z,93.32
2017-05-02T00:23:17.608Z,93.13
2017-05-02T00:24:18.894Z,92.94
2017-05-02T00:25:20.168Z,93.03
2017-05-02T00:26:21.426Z,93.13
2017-05-02T00:27:22.651Z,92.65
2017-05-02T00:28:23.888Z,92.74
2017-05-02T00:29:25.138Z,92.94
2017-05-02T00:30:26.474Z,92.84
2017-05-02T00:31:27.817Z,92.94
2017-05-02T00:32:29.096Z,92.55
2017-05-02T00:33:30.326Z,93.13
2017-05-02T00:34:31.566Z,93.22
2017-05-02T00:35:32.804Z,93.6
2017-05-02T00:36:34.052Z,93.51
2017-05-02T00:37:35.361Z,93.32
2017-05-02T00:38:36.563Z,93.32
2017-05-02T00:39:37.811Z,93.22
2017-05-02T00:40:39.020Z,93.41
2017-05-02T00:41:40.271Z,93.41
2017-05-02T00:42:41.515Z,94.08
2017-05-02T00:43:42.811Z,93.89
2017-05-02T00:44:44.076Z,93.6
2017-05-02T00:45:45.347Z,93.37
2017-05-02T00:46:46.587Z,94.08
2017-05-02T00:47:47.825Z,94.08
2017-05-02T00:48:49.052Z,94.08
2017-05-02T00:49:50.330Z,94.46
2017-05-02T00:50:51.662Z,94.51
2017-05-02T00:51:53.008Z,94.79
2017-05-02T00:52:54.203Z,94.7
2017-05-02T00:53:55.448Z,94.74
2017-05-02T00:54:56.690Z,94.32
2017-05-02T00:55:57.929Z,94.79
2017-05-02T00:56:59.163Z,94.79
2017-05-02T00:58:00.428Z,94.42
2017-05-02T00:59:01.643Z,94.7
2017-05-02T01:00:02.906Z,94.7
2017-05-02T01:01:04.142Z,94.79
2017-05-02T01:02:05.386Z,95.17
2017-05-02T01:03:06.651Z,95.17
2017-05-02T01:04:07.905Z,95.36
2017-05-02T01:05:09.161Z,95.17
2017-05-02T01:06:10.402Z,95.17
2017-05-02T01:07:11.637Z,95.17
2017-05-02T01:08:12.927Z,94.51
2017-05-02T01:09:14.179Z,95.17
2017-05-02T01:10:15.556Z,95.17
2017-05-02T01:11:17.006Z,95.27
2017-05-02T01:12:18.283Z,94.79
2017-05-02T01:13:19.551Z,94.79
2017-05-02T01:14:20.914Z,94.7
2017-05-02T01:15:22.162Z,95.27
2017-05-02T01:16:23.440Z,94.79
2017-05-02T01:17:24.681Z,94.98
2017-05-02T01:18:25.913Z,94.89
2017-05-02T01:19:27.179Z,94.98
2017-05-02T01:20:28.463Z,94.79
2017-05-02T01:21:29.697Z,95.36
2017-05-02T01:22:31.129Z,95.17
2017-05-02T01:23:32.269Z,95.17
2017-05-02T01:24:33.509Z,94.98
2017-05-02T01:25:34.760Z,95.17
2017-05-02T01:26:35.982Z,94.79
2017-05-02T01:27:37.221Z,95.36
2017-05-02T01:28:38.460Z,94.79
2017-05-02T01:29:39.706Z,94.84
2017-05-02T01:30:40.939Z,95.17
2017-05-02T01:31:42.206Z,94.79
2017-05-02T01:32:43.446Z,95.17
2017-05-02T01:33:44.754Z,94.79
2017-05-02T01:34:45.997Z,94.79
2017-05-02T01:35:47.276Z,94.89
2017-05-02T01:36:48.513Z,94.7
2017-05-02T01:37:49.769Z,94.89
2017-05-02T01:38:50.983Z,94.79
2017-05-02T01:39:52.235Z,94.98
2017-05-02T01:40:53.667Z,95.08
2017-05-02T01:41:54.929Z,94.89
2017-05-02T01:42:56.185Z,94.98
2017-05-02T01:43:57.422Z,94.79
2017-05-02T01:44:58.675Z,94.6
2017-05-02T01:45:59.924Z,94.22
2017-05-02T01:47:01.185Z,94.79
2017-05-02T01:48:02.467Z,94.7
2017-05-02T01:49:03.743Z,94.79
2017-05-02T01:50:04.984Z,94.51
2017-05-02T01:51:06.331Z,94.89
2017-05-02T01:52:07.624Z,94.42
2017-05-02T01:53:08.871Z,94.42
2017-05-02T01:54:10.089Z,94.42
2017-05-02T01:55:11.337Z,94.79
2017-05-02T01:56:12.578Z,94.89
2017-05-02T01:57:13.827Z,94.98
2017-05-02T01:58:15.061Z,94.7
2017-05-02T01:59:16.299Z,94.7
2017-05-02T02:00:17.535Z,94.79
2017-05-02T02:01:18.773Z,94.89
2017-05-02T02:02:20.026Z,95.08
2017-05-02T02:03:21.263Z,94.6
2017-05-02T02:04:22.512Z,95.27
2017-05-02T02:05:23.919Z,95.17
2017-05-02T02:06:25.221Z,95.27
2017-05-02T02:07:26.408Z,94.7
2017-05-02T02:08:27.636Z,94.98
2017-05-02T02:09:28.887Z,95.17
2017-05-02T02:10:30.225Z,94.98
2017-05-02T02:11:31.658Z,94.79
2017-05-02T02:12:32.903Z,94.98
2017-05-02T02:13:34.246Z,95.36
2017-05-02T02:14:35.465Z,95.27
2017-05-02T02:15:36.706Z,95.27
2017-05-02T02:16:37.989Z,95.56
2017-05-02T02:17:39.200Z,95.56
2017-05-02T02:18:40.498Z,95.17
2017-05-02T02:19:41.729Z,95.08
2017-05-02T02:20:42.984Z,95.36
2017-05-02T02:21:44.217Z,95.46
2017-05-02T02:22:45.453Z,95.84
2017-05-02T02:23:46.773Z,95.56
2017-05-02T02:24:48.046Z,95.27
2017-05-02T02:25:49.356Z,95.56
2017-05-02T02:26:50.581Z,95.65
2017-05-02T02:27:51.814Z,95.17
2017-05-02T02:28:53.062Z,95.75
2017-05-02T02:29:54.320Z,95.36
2017-05-02T02:30:55.561Z,95.6
2017-05-02T02:31:56.796Z,95.65
2017-05-02T02:32:58.175Z,95.65
2017-05-02T02:33:59.418Z,95.56
2017-05-02T02:35:00.673Z,95.56
2017-05-02T02:36:01.906Z,95.56
2017-05-02T02:37:03.181Z,95.65
2017-05-02T02:38:04.438Z,95.56
2017-05-02T02:39:05.683Z,95.65
2017-05-02T02:40:06.926Z,95.56
2017-05-02T02:41:08.171Z,95.46
2017-05-02T02:42:09.411Z,95.56
2017-05-02T02:43:10.905Z,95.17
2017-05-02T02:44:12.179Z,95.27
2017-05-02T02:45:13.393Z,95.27
2017-05-02T02:46:14.640Z,95.27
2017-05-02T02:47:15.884Z,94.89
2017-05-02T02:48:17.142Z,95.65
2017-05-02T02:49:18.382Z,95.56
2017-05-02T02:50:19.653Z,95.75
2017-05-02T02:51:20.891Z,95.65
2017-05-02T02:52:22.132Z,95.75
2017-05-02T02:53:23.401Z,95.75
2017-05-02T02:54:24.684Z,95.56
2017-05-02T02:55:26.071Z,95.75
2017-05-02T02:56:27.384Z,96.31
2017-05-02T02:57:28.624Z,96.31
2017-05-02T02:58:29.866Z,96.12
2017-05-02T02:59:31.098Z,96.22
2017-05-02T03:00:32.486Z,96.41
2017-05-02T03:01:33.780Z,96.22
2017-05-02T03:02:35.214Z,96.03
2017-05-02T03:03:36.422Z,95.94
2017-05-02T03:04:37.649Z,96.12
2017-05-02T03:05:38.912Z,95.75
2017-05-02T03:06:40.127Z,95.56
2017-05-02T03:07:41.376Z,96.22
2017-05-02T03:08:42.607Z,96.31
2017-05-02T03:09:43.846Z,96.7
2017-05-02T03:10:45.110Z,96.7
2017-05-02T03:11:46.351Z,96.6
2017-05-02T03:12:47.577Z,96.41
2017-05-02T03:13:48.811Z,96.41
2017-05-02T03:14:50.051Z,96.22
2017-05-02T03:15:51.290Z,96.89
2017-05-02T03:16:52.528Z,96.6
2017-05-02T03:17:53.779Z,96.6
2017-05-02T03:18:55.021Z,96.51
2017-05-02T03:19:56.491Z,96.6
2017-05-02T03:20:57.748Z,96.41
2017-05-02T03:21:59.009Z,96.6
2017-05-02T03:23:00.255Z,96.31
2017-05-02T03:24:01.526Z,96.41
2017-05-02T03:25:02.987Z,96.6
2017-05-02T03:26:04.227Z,96.79
2017-05-02T03:27:05.472Z,96.31
2017-05-02T03:28:06.723Z,96.6
2017-05-02T03:29:07.978Z,96.41
2017-05-02T03:30:09.229Z,96.12
2017-05-02T03:31:10.440Z,96.12
2017-05-02T03:32:11.738Z,96.89
2017-05-02T03:33:12.990Z,96.6
2017-05-02T03:34:14.260Z,96.79
2017-05-02T03:35:15.524Z,97.08
2017-05-02T03:36:16.767Z,97.08
2017-05-02T03:37:18.154Z,97.08
2017-05-02T03:38:19.427Z,96.98
2017-05-02T03:39:20.652Z,96.98
2017-05-02T03:40:21.901Z,96.98
2017-05-02T03:41:23.120Z,97.36
2017-05-02T03:42:24.365Z,97.27
2017-05-02T03:43:25.610Z,97.08
2017-05-02T03:44:26.887Z,97.08
2017-05-02T03:45:28.139Z,97.08
2017-05-02T03:46:29.397Z,97.08
2017-05-02T03:47:30.627Z,96.98
2017-05-02T03:48:31.903Z,96.98
2017-05-02T03:49:33.127Z,97.46
2017-05-02T03:50:34.569Z,97.46
2017-05-02T03:51:35.915Z,97.36
2017-05-02T03:52:37.139Z,97.55
2017-05-02T03:53:38.376Z,97.55
2017-05-02T03:54:39.636Z,97.55
2017-05-02T03:55:40.888Z,97.74
2017-05-02T03:56:42.139Z,97.27
2017-05-02T03:57:43.392Z,97.27
2017-05-02T03:58:44.629Z,97.74
2017-05-02T03:59:45.873Z,97.65
2017-05-02T04:00:47.134Z,97.93
2017-05-02T04:01:48.369Z,97.74
2017-05-02T04:02:49.609Z,97.55
2017-05-02T04:03:50.829Z,97.93
2017-05-02T04:04:52.120Z,97.84
2017-05-02T04:05:53.411Z,97.84
2017-05-02T04:06:54.654Z,97.84
2017-05-02T04:07:55.892Z,97.84
2017-05-02T04:08:57.129Z,97.93
2017-05-02T04:09:58.365Z,97.84
2017-05-02T04:10:59.693Z,97.93
2017-05-02T04:12:00.915Z,98.22
2017-05-02T04:13:02.148Z,97.74
2017-05-02T04:14:03.381Z,97.84
2017-05-02T04:15:04.654Z,97.65
2017-05-02T04:16:05.893Z,97.74
2017-05-02T04:17:07.133Z,97.93
2017-05-02T04:18:08.373Z,98.13
2017-05-02T04:19:09.608Z,98.03
2017-05-02T04:20:10.854Z,98.13
2017-05-02T04:21:12.144Z,97.74
2017-05-02T04:22:13.379Z,98.03
2017-05-02T04:23:14.726Z,97.93
2017-05-02T04:24:15.993Z,97.36
2017-05-02T04:25:17.266Z,97.55
2017-05-02T04:26:18.504Z,97.74
2017-05-02T04:27:19.772Z,97.65
2017-05-02T04:28:21.065Z,98.03
2017-05-02T04:29:22.290Z,97.84
2017-05-02T04:30:23.624Z,97.93
2017-05-02T04:31:24.866Z,98.03
2017-05-02T04:32:26.089Z,98.13
2017-05-02T04:33:27.536Z,97.74
2017-05-02T04:34:28.788Z,97.84
2017-05-02T04:35:30.132Z,97.46
2017-05-02T04:36:31.366Z,97.36
2017-05-02T04:37:32.607Z,97.65
2017-05-02T04:38:33.875Z,98.03
2017-05-02T04:39:35.118Z,97.55
2017-05-02T04:40:36.359Z,97.84
2017-05-02T04:41:37.680Z,97.93
2017-05-02T04:42:38.940Z,98.13
2017-05-02T04:43:40.157Z,97.74
2017-05-02T04:44:41.415Z,97.55
2017-05-02T04:45:42.665Z,97.79
2017-05-02T04:46:44.065Z,97.51
2017-05-02T04:47:45.187Z,97.46
2017-05-02T04:48:46.428Z,97.7
2017-05-02T04:49:47.684Z,97.7
2017-05-02T04:50:48.913Z,97.41
2017-05-02T04:51:50.171Z,97.41
2017-05-02T04:52:51.402Z,97.6
2017-05-02T04:53:52.680Z,97.31
2017-05-02T04:54:53.940Z,97.51
2017-05-02T04:55:55.231Z,97.79
2017-05-02T04:56:56.478Z,97.79
2017-05-02T04:57:57.712Z,97.22
2017-05-02T04:58:58.952Z,97.51
2017-05-02T05:00:00.194Z,97.89
2017-05-02T05:01:01.565Z,97.03
2017-05-02T05:02:02.830Z,97.41
2017-05-02T05:03:04.056Z,97.41
2017-05-02T05:04:05.283Z,97.41
2017-05-02T05:05:06.530Z,97.51
2017-05-02T05:06:07.944Z,96.84
2017-05-02T05:07:09.207Z,97.03
2017-05-02T05:08:10.557Z,96.94
2017-05-02T05:09:11.789Z,97.03
2017-05-02T05:10:13.058Z,96.94
2017-05-02T05:11:14.348Z,96.36
2017-05-02T05:12:15.587Z,96.36
2017-05-02T05:13:16.894Z,96.46
2017-05-02T05:14:18.153Z,96.46
2017-05-02T05:15:19.394Z,96.46
2017-05-02T05:16:20.620Z,95.89
2017-05-02T05:17:21.878Z,96.27
2017-05-02T05:18:23.157Z,96.27
2017-05-02T05:19:24.383Z,96.36
2017-05-02T05:20:25.630Z,96.08
2017-05-02T05:21:26.861Z,96.36
2017-05-02T05:22:28.107Z,95.98
2017-05-02T05:23:29.376Z,95.98
2017-05-02T05:24:30.736Z,96.27
2017-05-02T05:25:32.137Z,96.36
2017-05-02T05:26:33.376Z,96.17
2017-05-02T05:27:34.621Z,96.17
2017-05-02T05:28:35.863Z,96.17
2017-05-02T05:29:37.091Z,96.27
2017-05-02T05:30:38.330Z,96.08
2017-05-02T05:31:39.661Z,95.79
2017-05-02T05:32:40.916Z,96.27
2017-05-02T05:33:42.140Z,96.36
2017-05-02T05:34:43.376Z,96.36
2017-05-02T05:35:44.647Z,96.17
2017-05-02T05:36:45.857Z,96.08
2017-05-02T05:37:47.090Z,96.27
2017-05-02T05:38:48.335Z,95.89
2017-05-02T05:39:49.574Z,95.98
2017-05-02T05:40:50.839Z,96.08
2017-05-02T05:41:52.071Z,95.75
2017-05-02T05:42:53.314Z,95.75
2017-05-02T05:43:54.571Z,95.75
2017-05-02T05:44:55.850Z,95.84
2017-05-02T05:45:57.053Z,95.56
2017-05-02T05:46:58.336Z,95.84
2017-05-02T05:47:59.574Z,95.36
2017-05-02T05:49:00.814Z,95.46
2017-05-02T05:50:02.122Z,95.17
2017-05-02T05:51:03.395Z,95.75
2017-05-02T05:52:04.694Z,95.36
2017-05-02T05:53:05.919Z,94.98
2017-05-02T05:54:07.195Z,94.41
2017-05-02T05:55:08.423Z,94.6
2017-05-02T05:56:09.661Z,94.79
2017-05-02T05:57:10.929Z,94.51
2017-05-02T05:58:12.238Z,94.79
2017-05-02T05:59:13.478Z,94.41
2017-05-02T06:00:14.714Z,93.84
2017-05-02T06:01:15.952Z,93.84
2017-05-02T06:02:17.207Z,93.93
2017-05-02T06:03:18.477Z,94.41
2017-05-02T06:04:19.811Z,93.93
2017-05-02T06:05:21.063Z,94.22
2017-05-02T06:06:22.310Z,93.93
2017-05-02T06:07:23.555Z,93.93
2017-05-02T06:08:24.788Z,94.41
2017-05-02T06:09:26.017Z,93.65
2017-05-02T06:10:27.290Z,93.37
2017-05-02T06:11:28.537Z,94.32
2017-05-02T06:12:29.784Z,93.93
2017-05-02T06:13:31.041Z,93.93
2017-05-02T06:14:32.275Z,93.93
2017-05-02T06:15:33.518Z,93.93
2017-05-02T06:16:34.764Z,93.93
2017-05-02T06:17:36.221Z,93.93
2017-05-02T06:18:37.490Z,93.74
2017-05-02T06:19:38.727Z,94.13
2017-05-02T06:20:39.974Z,93.93
2017-05-02T06:21:41.236Z,93.65
2017-05-02T06:22:42.455Z,93.27
2017-05-02T06:23:43.727Z,93.46
2017-05-02T06:24:44.982Z,93.46
2017-05-02T06:25:46.206Z,93.93
2017-05-02T06:26:47.443Z,93.93
2017-05-02T06:27:48.703Z,94.03
2017-05-02T06:28:49.973Z,93.27
2017-05-02T06:29:51.228Z,93.46
2017-05-02T06:30:52.583Z,93.27
2017-05-02T06:31:53.878Z,93.37
2017-05-02T06:32:55.111Z,93.37
2017-05-02T06:33:56.357Z,93.08
2017-05-02T06:34:57.621Z,93.27
2017-05-02T06:35:58.848Z,93.46
2017-05-02T06:37:00.127Z,93.65
2017-05-02T06:38:01.366Z,93.74
2017-05-02T06:39:02.640Z,94.32
2017-05-02T06:40:03.876Z,94.03
2017-05-02T06:41:05.127Z,93.93
2017-05-02T06:42:06.590Z,94.22
2017-05-02T06:43:07.849Z,94.22
2017-05-02T06:44:09.087Z,93.84
2017-05-02T06:45:10.333Z,93.84
2017-05-02T06:46:11.586Z,94.32
2017-05-02T06:47:12.891Z,94.13
2017-05-02T06:48:14.275Z,93.74
2017-05-02T06:49:15.521Z,93.93
2017-05-02T06:50:16.765Z,93.27
2017-05-02T06:51:18.013Z,93.27
2017-05-02T06:52:19.258Z,93.37
2017-05-02T06:53:20.489Z,93.27
2017-05-02T06:54:21.882Z,93.08
2017-05-02T06:55:23.091Z,93.37
2017-05-02T06:56:24.393Z,93.46
2017-05-02T06:57:25.612Z,92.89
2017-05-02T06:58:26.850Z,92.5
2017-05-02T06:59:28.113Z,92.74
2017-05-02T07:00:29.348Z,92.17
2017-05-02T07:01:30.721Z,91.69
2017-05-02T07:02:31.977Z,91.6
2017-05-02T07:03:33.296Z,91.69
2017-05-02T07:04:34.705Z,91.6
2017-05-02T07:05:35.994Z,91.6
2017-05-02T07:06:37.229Z,90.93
2017-05-02T07:07:38.500Z,90.45
2017-05-02T07:08:39.722Z,90.08
2017-05-02T07:09:40.959Z,90.17
2017-05-02T07:10:42.199Z,89.4
2017-05-02T07:11:43.428Z,89.4
2017-05-02T07:12:44.697Z,88.78
2017-05-02T07:13:45.950Z,88.74
2017-05-02T07:14:47.200Z,87.35
2017-05-02T07:15:48.438Z,87.54
2017-05-02T07:16:49.683Z,88.07
2017-05-02T07:17:50.922Z,87.07
2017-05-02T07:18:52.177Z,86.69
2017-05-02T07:19:53.580Z,87.64
2017-05-02T07:20:54.837Z,87.26
2017-05-02T07:21:56.080Z,85.83
2017-05-02T07:22:57.365Z,85.64
2017-05-02T07:23:58.588Z,85.39
2017-05-02T07:24:59.896Z,85.11
2017-05-02T07:26:01.134Z,84.34
2017-05-02T07:27:02.409Z,83.77
2017-05-02T07:28:03.687Z,83.77
2017-05-02T07:29:04.942Z,82.67
2017-05-02T07:30:06.163Z,82.76
2017-05-02T07:31:07.699Z,82.95
2017-05-02T07:32:08.890Z,82.38
2017-05-02T07:33:10.141Z,82.09
2017-05-02T07:34:11.382Z,81.76
2017-05-02T07:35:12.632Z,80.9
2017-05-02T07:36:13.857Z,78.79
2017-05-02T07:37:15.124Z,78.7
2017-05-02T07:38:16.395Z,79.56
2017-05-02T07:39:17.653Z,80.13
2017-05-02T07:40:18.872Z,78.99
2017-05-02T07:41:20.113Z,77.55
2017-05-02T07:42:21.372Z,77.08
2017-05-02T07:43:22.670Z,77.84
2017-05-02T07:44:23.954Z,78.07
2017-05-02T07:45:25.174Z,77.97
2017-05-02T07:46:26.481Z,76.45
2017-05-02T07:47:27.726Z,75.78
2017-05-02T07:48:28.985Z,75.49
2017-05-02T07:49:30.261Z,75.39
2017-05-02T07:50:31.535Z,77.01
2017-05-02T07:51:32.748Z,77.01
2017-05-02T07:52:33.985Z,77.3
2017-05-02T07:53:35.224Z,76.77
2017-05-02T07:54:36.475Z,74.44
2017-05-02T07:55:37.710Z,74.95
2017-05-02T07:56:38.994Z,74.57
2017-05-02T07:57:40.322Z,74.28
2017-05-02T07:58:41.576Z,74.38
2017-05-02T07:59:42.808Z,72.18
2017-05-02T08:00:44.086Z,71.7
2017-05-02T08:01:45.325Z,71.13
2017-05-02T08:02:46.567Z,72.31
2017-05-02T08:03:47.855Z,72.18
2017-05-02T08:04:49.076Z,73.04
2017-05-02T08:05:50.334Z,73.08
2017-05-02T08:06:51.774Z,69.7
2017-05-02T08:07:53.030Z,69.98
2017-05-02T08:08:54.277Z,70.75
2017-05-02T08:09:55.531Z,71.32
2017-05-02T08:10:56.752Z,70.46
2017-05-02T08:11:58.007Z,71.22
2017-05-02T08:12:59.250Z,71.61
2017-05-02T08:14:00.515Z,70.23
2017-05-02T08:15:01.766Z,70.23
2017-05-02T08:16:03.084Z,70.14
2017-05-02T08:17:04.361Z,70.23
2017-05-02T08:18:05.585Z,72.53
2017-05-02T08:19:06.814Z,71.76
2017-05-02T08:20:08.053Z,71.34
2017-05-02T08:21:09.300Z,72.33
2017-05-02T08:22:10.671Z,72.01
2017-05-02T08:23:12.073Z,73.73
2017-05-02T08:24:13.286Z,73.67
2017-05-02T08:25:14.529Z,73.63
2017-05-02T08:26:15.779Z,73.67
2017-05-02T08:27:17.018Z,72.53
2017-05-02T08:28:18.351Z,72.33
2017-05-02T08:29:19.591Z,72.43
2017-05-02T08:30:20.870Z,70.81
2017-05-02T08:31:22.182Z,70.33
2017-05-02T08:32:23.443Z,69.56
2017-05-02T08:33:24.763Z,69.47
2017-05-02T08:34:26.030Z,68.9
2017-05-02T08:35:27.270Z,68.51
2017-05-02T08:36:28.529Z,68.41
2017-05-02T08:37:29.756Z,68.41
2017-05-02T08:38:31.035Z,69.85
2017-05-02T08:39:32.364Z,69.66
2017-05-02T08:40:33.626Z,67.84
2017-05-02T08:41:34.883Z,67.36
2017-05-02T08:42:36.120Z,67.27
2017-05-02T08:43:37.361Z,68.13
2017-05-02T08:44:38.614Z,68.41
2017-05-02T08:45:39.853Z,69.37
2017-05-02T08:46:41.105Z,69.27
2017-05-02T08:47:42.340Z,68.04
2017-05-02T08:48:43.582Z,68.04
2017-05-02T08:49:45.048Z,68.23
2017-05-02T08:50:46.301Z,68.76
2017-05-02T08:51:47.607Z,69.34
2017-05-02T08:52:48.853Z,69.72
2017-05-02T08:53:50.083Z,70.2
2017-05-02T08:54:51.328Z,70.29
2017-05-02T08:55:52.573Z,69.85
2017-05-02T08:56:53.812Z,68.8
2017-05-02T08:57:55.057Z,68.51
2017-05-02T08:58:56.324Z,67.94
2017-05-02T08:59:57.615Z,67.36
2017-05-02T09:00:58.858Z,67.08
2017-05-02T09:02:00.105Z,67.55
2017-05-02T09:03:01.346Z,66.13
2017-05-02T09:04:02.596Z,66.44
2017-05-02T09:05:03.910Z,65.2
2017-05-02T09:06:05.137Z,65.3
2017-05-02T09:07:06.559Z,65.11
2017-05-02T09:08:07.792Z,64.62
2017-05-02T09:09:09.039Z,63.96
2017-05-02T09:10:10.331Z,63.48
2017-05-02T09:11:11.573Z,63.67
2017-05-02T09:12:12.827Z,63.39
2017-05-02T09:13:14.058Z,63.57
2017-05-02T09:14:15.296Z,63.19
2017-05-02T09:15:16.664Z,63.96
2017-05-02T09:16:17.906Z,63.39
2017-05-02T09:17:19.165Z,64.25
2017-05-02T09:18:20.415Z,64.82
2017-05-02T09:19:21.675Z,64.82
2017-05-02T09:20:22.908Z,65.58
2017-05-02T09:21:24.171Z,65.58
2017-05-02T09:22:25.441Z,66.03
2017-05-02T09:23:26.748Z,65.93
2017-05-02T09:24:27.976Z,66.7
2017-05-02T09:25:29.250Z,67.08
2017-05-02T09:26:30.476Z,67.36
2017-05-02T09:27:31.714Z,67.36
2017-05-02T09:28:32.974Z,67.55
2017-05-02T09:29:34.279Z,67.36
2017-05-02T09:30:35.515Z,66.99
2017-05-02T09:31:36.772Z,66.31
2017-05-02T09:32:38.053Z,66.79
2017-05-02T09:33:39.255Z,66.99
2017-05-02T09:34:40.479Z,67.55
2017-05-02T09:35:42.035Z,67.46
2017-05-02T09:36:43.158Z,66.79
2017-05-02T09:37:44.438Z,66.54
2017-05-02T09:38:45.731Z,67.4
2017-05-02T09:39:46.998Z,66.25
2017-05-02T09:40:48.227Z,66.25
2017-05-02T09:41:49.466Z,66.16
2017-05-02T09:42:50.733Z,66.25
2017-05-02T09:43:51.994Z,66.06
2017-05-02T09:44:53.283Z,66.44
2017-05-02T09:45:54.522Z,66.35
2017-05-02T09:46:55.762Z,65.97
2017-05-02T09:47:57.017Z,66.35
2017-05-02T09:48:58.259Z,67.4
2017-05-02T09:49:59.514Z,66.35
2017-05-02T09:51:00.775Z,65.58
2017-05-02T09:52:02.030Z,66.06
2017-05-02T09:53:03.268Z,65.58
2017-05-02T09:54:04.524Z,64.91
2017-05-02T09:55:05.780Z,64.95
2017-05-02T09:56:07.022Z,64.56
2017-05-02T09:57:08.389Z,63.89
2017-05-02T09:58:09.653Z,63.6
2017-05-02T09:59:10.909Z,62.55
2017-05-02T10:00:12.149Z,62.84
2017-05-02T10:01:13.400Z,62.84
2017-05-02T10:02:14.645Z,62.84
2017-05-02T10:03:15.900Z,62.77
2017-05-02T10:04:17.137Z,61.91
2017-05-02T10:05:18.407Z,61.25
2017-05-02T10:06:19.667Z,61.72
2017-05-02T10:07:20.913Z,61.79
2017-05-02T10:08:22.316Z,61.98
2017-05-02T10:09:23.653Z,62.65
2017-05-02T10:10:24.884Z,62.65
2017-05-02T10:11:26.142Z,63.32
2017-05-02T10:12:27.384Z,63.7
2017-05-02T10:13:28.653Z,63.13
2017-05-02T10:14:30.046Z,63.6
2017-05-02T10:15:31.361Z,63.51
2017-05-02T10:16:32.776Z,63.8
2017-05-02T10:17:34.015Z,64.85
2017-05-02T10:18:35.264Z,64.28
2017-05-02T10:19:36.529Z,64.56
2017-05-02T10:20:37.776Z,64.18
2017-05-02T10:21:39.040Z,63.42
2017-05-02T10:22:40.254Z,63.51
2017-05-02T10:23:41.493Z,64.18
2017-05-02T10:24:42.732Z,64.66
2017-05-02T10:25:44.000Z,64.37
2017-05-02T10:26:45.239Z,64.18
2017-05-02T10:27:46.490Z,64.37
2017-05-02T10:28:47.776Z,63.6
2017-05-02T10:29:49.017Z,63.13
2017-05-02T10:30:50.275Z,63.16
2017-05-02T10:31:51.513Z,62.77
2017-05-02T10:32:52.764Z,63.64
2017-05-02T10:33:54.045Z,63.16
2017-05-02T10:34:55.294Z,62.87
2017-05-02T10:35:56.553Z,62.97
2017-05-02T10:36:58.015Z,63.16
2017-05-02T10:37:59.253Z,62.87
2017-05-02T10:39:00.493Z,63.35
2017-05-02T10:40:01.732Z,62.43
2017-05-02T10:41:02.963Z,61.85
2017-05-02T10:42:04.206Z,61.82
2017-05-02T10:43:05.458Z,62.01
2017-05-02T10:44:06.696Z,61.85
2017-05-02T10:45:08.046Z,61.76
2017-05-02T10:46:09.298Z,61.76
2017-05-02T10:47:10.533Z,60.51
2017-05-02T10:48:11.783Z,60.89
2017-05-02T10:49:13.021Z,60.41
2017-05-02T10:50:14.408Z,60.16
2017-05-02T10:51:15.659Z,59.97
2017-05-02T10:52:16.910Z,58.46
2017-05-02T10:53:18.236Z,57.79
2017-05-02T10:54:19.500Z,57.24
2017-05-02T10:55:20.744Z,57.34
2017-05-02T10:56:21.976Z,55.8
2017-05-02T10:57:23.245Z,55.23
2017-05-02T10:58:24.482Z,55.33
2017-05-02T10:59:25.767Z,54.56
2017-05-02T11:00:27.081Z,54.66
2017-05-02T11:01:28.312Z,54.72
2017-05-02T11:02:29.562Z,55.58
2017-05-02T11:03:30.839Z,56.16
2017-05-02T11:04:32.139Z,55.97
2017-05-02T11:05:33.386Z,55.87
2017-05-02T11:06:34.667Z,56.42
2017-05-02T11:07:35.938Z,56.71
2017-05-02T11:08:37.176Z,56.9
2017-05-02T11:09:38.476Z,57.28
2017-05-02T11:10:39.752Z,57.19
2017-05-02T11:11:41.006Z,57.57
2017-05-02T11:12:42.260Z,57.67
2017-05-02T11:13:43.499Z,57.21
2017-05-02T11:14:44.740Z,57.12
2017-05-02T11:15:45.999Z,57.31
2017-05-02T11:16:47.250Z,56.54
2017-05-02T11:17:48.496Z,55.78
2017-05-02T11:18:49.793Z,56.07
2017-05-02T11:19:51.027Z,56.38
2017-05-02T11:20:52.264Z,55.13
2017-05-02T11:21:53.513Z,55.62
2017-05-02T11:22:54.774Z,55.49
2017-05-02T11:23:56.065Z,55.4
2017-05-02T11:24:57.274Z,56.35
2017-05-02T11:25:58.512Z,55.87
2017-05-02T11:26:59.780Z,55.97
2017-05-02T11:28:01.003Z,56.26
2017-05-02T11:29:02.273Z,57.12
2017-05-02T11:30:03.507Z,57.03
2017-05-02T11:31:04.787Z,56.54
2017-05-02T11:32:06.035Z,55.87
2017-05-02T11:33:07.285Z,55.3
2017-05-02T11:34:08.543Z,55.71
2017-05-02T11:35:09.783Z,55.78
2017-05-02T11:36:11.097Z,55.97
2017-05-02T11:37:12.379Z,55.97
2017-05-02T11:38:13.649Z,56.19
2017-05-02T11:39:14.894Z,56.19
2017-05-02T11:40:16.144Z,55.97
2017-05-02T11:41:17.395Z,56.26
2017-05-02T11:42:18.662Z,56.83
2017-05-02T11:43:19.995Z,57.21
2017-05-02T11:44:21.245Z,56.52
2017-05-02T11:45:22.495Z,56.61
2017-05-02T11:46:23.754Z,56.61
2017-05-02T11:47:24.985Z,57.19
2017-05-02T11:48:26.377Z,56.13
2017-05-02T11:49:27.667Z,55.94
2017-05-02T11:50:28.892Z,55.94
2017-05-02T11:51:30.137Z,55.75
2017-05-02T11:52:31.408Z,55.36
2017-05-02T11:53:32.639Z,54.41
2017-05-02T11:54:33.878Z,54.6
2017-05-02T11:55:35.116Z,54.91
2017-05-02T11:56:36.636Z,54.63
2017-05-02T11:57:37.857Z,53.96
2017-05-02T11:58:39.115Z,53.48
2017-05-02T11:59:40.363Z,53.99
2017-05-02T12:00:41.604Z,52.16
2017-05-02T12:01:42.844Z,52.16
2017-05-02T12:02:44.110Z,51.49
2017-05-02T12:03:45.357Z,51.32
2017-05-02T12:04:46.663Z,51.14
2017-05-02T12:05:47.911Z,50.84
2017-05-02T12:06:49.262Z,51.32
2017-05-02T12:07:50.497Z,50.29
2017-05-02T12:08:51.788Z,51.25
2017-05-02T12:09:53.027Z,49.91
2017-05-02T12:10:54.267Z,49.24
2017-05-02T12:11:55.507Z,49.02
2017-05-02T12:12:56.822Z,49.88
2017-05-02T12:13:58.144Z,49.86
2017-05-02T12:14:59.507Z,50.34
2017-05-02T12:16:00.662Z,51.18
2017-05-02T12:17:01.887Z,51.44
2017-05-02T12:18:03.116Z,53.07
2017-05-02T12:19:04.391Z,54.57
2017-05-02T12:20:05.676Z,54.28
2017-05-02T12:21:06.885Z,55.31
2017-05-02T12:22:08.144Z,55.88
2017-05-02T12:23:09.418Z,55.88
2017-05-02T12:24:10.665Z,57.23
2017-05-02T12:25:11.919Z,57.58
2017-05-02T12:26:13.212Z,57.39
2017-05-02T12:27:14.472Z,58.25
2017-05-02T12:28:15.732Z,58.34
2017-05-02T12:29:16.983Z,58.98
2017-05-02T12:30:18.232Z,60.04
2017-05-02T12:31:19.488Z,60.04
2017-05-02T12:32:20.792Z,59.94
2017-05-02T12:33:22.205Z,60.04
2017-05-02T12:34:23.472Z,60.04
2017-05-02T12:35:24.733Z,60.04
2017-05-02T12:36:25.987Z,60.42
2017-05-02T12:37:27.241Z,60.8
2017-05-02T12:38:28.620Z,61.47
2017-05-02T12:39:29.907Z,62.04
2017-05-02T12:40:31.150Z,62.04
2017-05-02T12:41:32.411Z,62.71
2017-05-02T12:42:33.648Z,62.14
2017-05-02T12:43:34.913Z,61.85
2017-05-02T12:44:36.142Z,61.95
2017-05-02T12:45:37.393Z,61.66
2017-05-02T12:46:38.631Z,63
2017-05-02T12:47:39.872Z,63.86
2017-05-02T12:48:41.114Z,64.72
2017-05-02T12:49:42.375Z,63.93
2017-05-02T12:50:43.637Z,64.31
2017-05-02T12:51:44.872Z,64.69
2017-05-02T12:52:46.099Z,64.69
2017-05-02T12:53:47.367Z,65.74
2017-05-02T12:55:54.715Z,66.89
2017-05-02T12:56:55.989Z,66.79
2017-05-02T12:57:57.203Z,67.55
2017-05-02T12:58:58.464Z,68.51
2017-05-02T12:59:59.695Z,69.18
2017-05-02T13:01:00.983Z,70.14
2017-05-02T13:02:02.213Z,72.11
2017-05-02T13:03:03.454Z,72.3
2017-05-02T13:04:04.699Z,73.44
2017-05-02T13:05:05.947Z,74.11
2017-05-02T13:06:07.211Z,74.98
2017-05-02T13:07:08.477Z,76.37
2017-05-02T13:08:09.728Z,78.85
2017-05-02T13:09:10.998Z,78.66
2017-05-02T13:10:12.244Z,78.52
2017-05-02T13:11:13.458Z,79.77
2017-05-02T13:12:14.694Z,80.33